(°C)
18°
17°
19°
21°
23°
25°
26°
(°C)
17°
16°
18°
20°
22°
24°
25°
С
С
С
ССЗ
С
С
С
(км/ч)
7-13
8-13
8-15
7-19
8-19
8-18
8-19
(мм)
0
0
0
0
0
0
0
(%)
0
0
0
0
0
0
0

Высота солнцестояния

/ -1.9°
sun-icon
UV 6
04:57
19:59
Растущая луна (158°)
19:42
01:47

METAR для 51.82°С 39.23°В (UUOO)

Время Условия Температура/
Точка росы
Ветер Видимость Погода Облачность Давление Изменить Необработанный
VFR 17°C / 16°C variable 2kt >10km - Clouds and Visibility OK 1017 No Significant change. Runway 12: Clear and dry, 1-10% contamination with <1mm, friction coefficient 0.70. UUOO 100130Z VRB01MPS CAVOK 17/16 Q1017 R12/010070 NOSIG RMK QFE749
VFR 18°C / 16°C 340º 2kt >10km - Clouds and Visibility OK 1017 No Significant change. Runway 12: Clear and dry, 1-10% contamination with <1mm, friction coefficient 0.70. UUOO 100100Z 34001MPS CAVOK 18/16 Q1017 R12/010070 NOSIG RMK QFE749
VFR 18°C / 17°C 310º 2kt >10km - Clouds and Visibility OK 1017 No Significant change. Runway 12: Clear and dry, 1-10% contamination with <1mm, friction coefficient 0.70. UUOO 100030Z 31001MPS CAVOK 18/17 Q1017 R12/010070 NOSIG RMK QFE749
VFR 18°C / 16°C 330º 4kt >10km - Clouds and Visibility OK 1017 No Significant change. Runway 12: Clear and dry, 1-10% contamination with <1mm, friction coefficient 0.70. UUOO 100000Z 33002MPS CAVOK 18/16 Q1017 R12/010070 NOSIG RMK QFE749
VFR 19°C / 16°C variable 2kt >10km - Clouds and Visibility OK 1017 No Significant change. Runway 12: Clear and dry, 1-10% contamination with <1mm, friction coefficient 0.70. UUOO 092330Z VRB01MPS CAVOK 19/16 Q1017 R12/010070 NOSIG RMK QFE749
VFR 20°C / 17°C variable 2kt >10km - Clouds and Visibility OK 1017 No Significant change. Runway 12: Clear and dry, 1-10% contamination with <1mm, friction coefficient 0.70. UUOO 092300Z VRB01MPS CAVOK 20/17 Q1017 R12/010070 NOSIG RMK QFE749
VFR 20°C / 17°C 20º variable 280º to 070º 4kt >10km - Clouds and Visibility OK 1017 No Significant change. Runway 12: Clear and dry, 1-10% contamination with <1mm, friction coefficient 0.70. UUOO 092230Z 02002MPS 280V070 CAVOK 20/17 Q1017 R12/010070 NOSIG RMK QFE749
VFR 21°C / 17°C 60º 8kt >10km - Clouds and Visibility OK 1017 No Significant change. Runway 12: Clear and dry, 1-10% contamination with <1mm, friction coefficient 0.70. UUOO 092200Z 06004MPS CAVOK 21/17 Q1017 R12/010070 NOSIG RMK QFE749
VFR 21°C / 17°C 40º 8kt >10km - Clouds and Visibility OK 1018 No Significant change. Runway 12: Clear and dry, 1-10% contamination with <1mm, friction coefficient 0.70. UUOO 092130Z 04004MPS CAVOK 21/17 Q1018 R12/010070 NOSIG RMK QFE749
VFR 21°C / 16°C 20º variable 330º to 060º 4kt >10km - Clouds and Visibility OK 1018 No Significant change. Runway 12: Clear and dry, 1-10% contamination with <1mm, friction coefficient 0.70. UUOO 092100Z 02002MPS 330V060 CAVOK 21/16 Q1018 R12/010070 NOSIG RMK QFE749
VFR 22°C / 15°C variable 2kt >10km - Clouds and Visibility OK 1018 No Significant change. Runway 12: Clear and dry, 1-10% contamination with <1mm, friction coefficient 0.70. UUOO 092030Z VRB01MPS CAVOK 22/15 Q1018 R12/010070 NOSIG RMK QFE749
VFR 23°C / 14°C 40º 4kt >10km - Clouds and Visibility OK 1018 No Significant change. Runway 30: Clear and dry, 1-10% contamination with <1mm, friction coefficient 0.70. UUOO 092000Z 04002MPS CAVOK 23/14 Q1018 R30/010070 NOSIG RMK QFE750
VFR 23°C / 15°C 40º 6kt >10km - Clouds and Visibility OK 1018 No Significant change. Runway 30: Clear and dry, 1-10% contamination with <1mm, friction coefficient 0.70. UUOO 091930Z 04003MPS CAVOK 23/15 Q1018 R30/010070 NOSIG RMK QFE750
VFR 23°C / 15°C 30º variable 320º to 060º 6kt Gust 16kt >10km - Clouds and Visibility OK 1018 No Significant change. Runway 30: Clear and dry, 1-10% contamination with <1mm, friction coefficient 0.70. UUOO 091900Z 03003G08MPS 320V060 CAVOK 23/15 Q1018 R30/010070 NOSIG RMK QFE750
VFR 23°C / 15°C 40º 4kt Gust 16kt >10km - Clouds and Visibility OK 1018 No Significant change. Runway 30: Clear and dry, 1-10% contamination with <1mm, friction coefficient 0.70. UUOO 091830Z 04002G08MPS CAVOK 23/15 Q1018 R30/010070 NOSIG RMK QFE750
VFR 25°C / 15°C 20º 4kt >10km - Clouds and Visibility OK 1018 No Significant change. Runway 30: Clear and dry, 1-10% contamination with <1mm, friction coefficient 0.70. UUOO 091800Z 02002MPS CAVOK 25/15 Q1018 R30/010070 NOSIG RMK QFE750
VFR 24°C / 15°C 360º 6kt >10km - Clouds and Visibility OK 1018 No Significant change. Runway 30: Clear and dry, 1-10% contamination with <1mm, friction coefficient 0.70. UUOO 091730Z 36003MPS CAVOK 24/15 Q1018 R30/010070 NOSIG RMK QFE750
VFR 24°C / 14°C 320º 8kt >10km - Clouds and Visibility OK 1018 No Significant change. Runway 30: Clear and dry, 1-10% contamination with <1mm, friction coefficient 0.70. UUOO 091700Z 32004MPS CAVOK 24/14 Q1018 R30/010070 NOSIG RMK QFE750
25°C / 13°C 310º 8kt >10km in the Vicinity Thunderstorm Vertical Visibility of 0ft. 1018 No Significant change. Runway 30: Clear and dry, 1-10% contamination with <1mm, friction coefficient 0.70. UUOO 091630Z 31004MPS 9999 VCTS SCT///CB 25/13 Q1018 R30/010070 NOSIG RMK QFE750
26°C / 15°C 300º 8kt >10km in the Vicinity Thunderstorm Vertical Visibility of 0ft. 1018 Temporary: Light Thunderstorm Rain . RMK QFE749 . Runway 12: Clear and dry, 1-10% contamination with <1mm, friction coefficient 0.70. UUOO 091600Z 30004MPS 9999 VCTS SCT///CB 26/15 Q1018 R12/010070 TEMPO -TSRA RMK QFE749
VFR 25°C / 16°C variable 2kt >10km - Clouds and Visibility OK 1017 Temporary: Light Thunderstorm Rain . Scattered Clouds 2000ft. Cumulonimbus RMK QFE749 . Runway 12: Clear and dry, 1-10% contamination with <1mm, friction coefficient 0.70. UUOO 091530Z VRB01MPS CAVOK 25/16 Q1017 R12/010070 TEMPO -TSRA SCT020CB RMK QFE749
VFR 26°C / 15°C variable 0kt >10km - Clouds and Visibility OK 1018 Temporary: Light Thunderstorm Rain . Scattered Clouds 2000ft. Cumulonimbus RMK QFE749 . Runway 12: Clear and dry, 1-10% contamination with <1mm, friction coefficient 0.70. UUOO 091500Z 00000MPS CAVOK 26/15 Q1018 R12/010070 TEMPO -TSRA SCT020CB RMK QFE749
VFR 28°C / 18°C variable 2kt >10km - Clouds and Visibility OK 1017 Temporary: Light Thunderstorm Rain . Scattered Clouds 2000ft. Cumulonimbus RMK QFE749 . Runway 12: Clear and dry, 1-10% contamination with <1mm, friction coefficient 0.70. UUOO 091430Z VRB01MPS CAVOK 28/18 Q1017 R12/010070 TEMPO -TSRA SCT020CB RMK QFE749
VFR 30°C / 14°C 240º 4kt >10km - Clouds and Visibility OK 1017 No Significant change. Runway 12: Clear and dry, 1-10% contamination with <1mm, friction coefficient 0.70. UUOO 091400Z 24002MPS CAVOK 30/14 Q1017 R12/010070 NOSIG RMK QFE749

VFR

17°C / 16°C

[Больше]
Ветер variable 2kt
Видимость >10km
Погода -
Облачность Clouds and Visibility OK
Давление 1017
Изменить No Significant change. Runway 12: Clear and dry, 1-10% contamination with <1mm, friction coefficient 0.70.
Необработанный UUOO 100130Z VRB01MPS CAVOK 17/16 Q1017 R12/010070 NOSIG RMK QFE749

VFR

18°C / 16°C

[Больше]
Ветер 340º 2kt
Видимость >10km
Погода -
Облачность Clouds and Visibility OK
Давление 1017
Изменить No Significant change. Runway 12: Clear and dry, 1-10% contamination with <1mm, friction coefficient 0.70.
Необработанный UUOO 100100Z 34001MPS CAVOK 18/16 Q1017 R12/010070 NOSIG RMK QFE749

VFR

18°C / 17°C

[Больше]
Ветер 310º 2kt
Видимость >10km
Погода -
Облачность Clouds and Visibility OK
Давление 1017
Изменить No Significant change. Runway 12: Clear and dry, 1-10% contamination with <1mm, friction coefficient 0.70.
Необработанный UUOO 100030Z 31001MPS CAVOK 18/17 Q1017 R12/010070 NOSIG RMK QFE749

VFR

18°C / 16°C

[Больше]
Ветер 330º 4kt
Видимость >10km
Погода -
Облачность Clouds and Visibility OK
Давление 1017
Изменить No Significant change. Runway 12: Clear and dry, 1-10% contamination with <1mm, friction coefficient 0.70.
Необработанный UUOO 100000Z 33002MPS CAVOK 18/16 Q1017 R12/010070 NOSIG RMK QFE749

VFR

19°C / 16°C

[Больше]
Ветер variable 2kt
Видимость >10km
Погода -
Облачность Clouds and Visibility OK
Давление 1017
Изменить No Significant change. Runway 12: Clear and dry, 1-10% contamination with <1mm, friction coefficient 0.70.
Необработанный UUOO 092330Z VRB01MPS CAVOK 19/16 Q1017 R12/010070 NOSIG RMK QFE749

VFR

20°C / 17°C

[Больше]
Ветер variable 2kt
Видимость >10km
Погода -
Облачность Clouds and Visibility OK
Давление 1017
Изменить No Significant change. Runway 12: Clear and dry, 1-10% contamination with <1mm, friction coefficient 0.70.
Необработанный UUOO 092300Z VRB01MPS CAVOK 20/17 Q1017 R12/010070 NOSIG RMK QFE749

VFR

20°C / 17°C

[Больше]
Ветер 20º variable 280º to 070º 4kt
Видимость >10km
Погода -
Облачность Clouds and Visibility OK
Давление 1017
Изменить No Significant change. Runway 12: Clear and dry, 1-10% contamination with <1mm, friction coefficient 0.70.
Необработанный UUOO 092230Z 02002MPS 280V070 CAVOK 20/17 Q1017 R12/010070 NOSIG RMK QFE749

VFR

21°C / 17°C

[Больше]
Ветер 60º 8kt
Видимость >10km
Погода -
Облачность Clouds and Visibility OK
Давление 1017
Изменить No Significant change. Runway 12: Clear and dry, 1-10% contamination with <1mm, friction coefficient 0.70.
Необработанный UUOO 092200Z 06004MPS CAVOK 21/17 Q1017 R12/010070 NOSIG RMK QFE749

VFR

21°C / 17°C

[Больше]
Ветер 40º 8kt
Видимость >10km
Погода -
Облачность Clouds and Visibility OK
Давление 1018
Изменить No Significant change. Runway 12: Clear and dry, 1-10% contamination with <1mm, friction coefficient 0.70.
Необработанный UUOO 092130Z 04004MPS CAVOK 21/17 Q1018 R12/010070 NOSIG RMK QFE749

VFR

21°C / 16°C

[Больше]
Ветер 20º variable 330º to 060º 4kt
Видимость >10km
Погода -
Облачность Clouds and Visibility OK
Давление 1018
Изменить No Significant change. Runway 12: Clear and dry, 1-10% contamination with <1mm, friction coefficient 0.70.
Необработанный UUOO 092100Z 02002MPS 330V060 CAVOK 21/16 Q1018 R12/010070 NOSIG RMK QFE749

VFR

22°C / 15°C

[Больше]
Ветер variable 2kt
Видимость >10km
Погода -
Облачность Clouds and Visibility OK
Давление 1018
Изменить No Significant change. Runway 12: Clear and dry, 1-10% contamination with <1mm, friction coefficient 0.70.
Необработанный UUOO 092030Z VRB01MPS CAVOK 22/15 Q1018 R12/010070 NOSIG RMK QFE749

VFR

23°C / 14°C

[Больше]
Ветер 40º 4kt
Видимость >10km
Погода -
Облачность Clouds and Visibility OK
Давление 1018
Изменить No Significant change. Runway 30: Clear and dry, 1-10% contamination with <1mm, friction coefficient 0.70.
Необработанный UUOO 092000Z 04002MPS CAVOK 23/14 Q1018 R30/010070 NOSIG RMK QFE750

VFR

23°C / 15°C

[Больше]
Ветер 40º 6kt
Видимость >10km
Погода -
Облачность Clouds and Visibility OK
Давление 1018
Изменить No Significant change. Runway 30: Clear and dry, 1-10% contamination with <1mm, friction coefficient 0.70.
Необработанный UUOO 091930Z 04003MPS CAVOK 23/15 Q1018 R30/010070 NOSIG RMK QFE750

VFR

23°C / 15°C

[Больше]
Ветер 30º variable 320º to 060º 6kt Gust 16kt
Видимость >10km
Погода -
Облачность Clouds and Visibility OK
Давление 1018
Изменить No Significant change. Runway 30: Clear and dry, 1-10% contamination with <1mm, friction coefficient 0.70.
Необработанный UUOO 091900Z 03003G08MPS 320V060 CAVOK 23/15 Q1018 R30/010070 NOSIG RMK QFE750

VFR

23°C / 15°C

[Больше]
Ветер 40º 4kt Gust 16kt
Видимость >10km
Погода -
Облачность Clouds and Visibility OK
Давление 1018
Изменить No Significant change. Runway 30: Clear and dry, 1-10% contamination with <1mm, friction coefficient 0.70.
Необработанный UUOO 091830Z 04002G08MPS CAVOK 23/15 Q1018 R30/010070 NOSIG RMK QFE750

VFR

25°C / 15°C

[Больше]
Ветер 20º 4kt
Видимость >10km
Погода -
Облачность Clouds and Visibility OK
Давление 1018
Изменить No Significant change. Runway 30: Clear and dry, 1-10% contamination with <1mm, friction coefficient 0.70.
Необработанный UUOO 091800Z 02002MPS CAVOK 25/15 Q1018 R30/010070 NOSIG RMK QFE750

VFR

24°C / 15°C

[Больше]
Ветер 360º 6kt
Видимость >10km
Погода -
Облачность Clouds and Visibility OK
Давление 1018
Изменить No Significant change. Runway 30: Clear and dry, 1-10% contamination with <1mm, friction coefficient 0.70.
Необработанный UUOO 091730Z 36003MPS CAVOK 24/15 Q1018 R30/010070 NOSIG RMK QFE750

VFR

24°C / 14°C

[Больше]
Ветер 320º 8kt
Видимость >10km
Погода -
Облачность Clouds and Visibility OK
Давление 1018
Изменить No Significant change. Runway 30: Clear and dry, 1-10% contamination with <1mm, friction coefficient 0.70.
Необработанный UUOO 091700Z 32004MPS CAVOK 24/14 Q1018 R30/010070 NOSIG RMK QFE750

25°C / 13°C

[Больше]
Ветер 310º 8kt
Видимость >10km
Погода in the Vicinity Thunderstorm
Облачность Vertical Visibility of 0ft.
Давление 1018
Изменить No Significant change. Runway 30: Clear and dry, 1-10% contamination with <1mm, friction coefficient 0.70.
Необработанный UUOO 091630Z 31004MPS 9999 VCTS SCT///CB 25/13 Q1018 R30/010070 NOSIG RMK QFE750

26°C / 15°C

[Больше]
Ветер 300º 8kt
Видимость >10km
Погода in the Vicinity Thunderstorm
Облачность Vertical Visibility of 0ft.
Давление 1018
Изменить Temporary: Light Thunderstorm Rain . RMK QFE749 . Runway 12: Clear and dry, 1-10% contamination with <1mm, friction coefficient 0.70.
Необработанный UUOO 091600Z 30004MPS 9999 VCTS SCT///CB 26/15 Q1018 R12/010070 TEMPO -TSRA RMK QFE749

VFR

25°C / 16°C

[Больше]
Ветер variable 2kt
Видимость >10km
Погода -
Облачность Clouds and Visibility OK
Давление 1017
Изменить Temporary: Light Thunderstorm Rain . Scattered Clouds 2000ft. Cumulonimbus RMK QFE749 . Runway 12: Clear and dry, 1-10% contamination with <1mm, friction coefficient 0.70.
Необработанный UUOO 091530Z VRB01MPS CAVOK 25/16 Q1017 R12/010070 TEMPO -TSRA SCT020CB RMK QFE749

VFR

26°C / 15°C

[Больше]
Ветер variable 0kt
Видимость >10km
Погода -
Облачность Clouds and Visibility OK
Давление 1018
Изменить Temporary: Light Thunderstorm Rain . Scattered Clouds 2000ft. Cumulonimbus RMK QFE749 . Runway 12: Clear and dry, 1-10% contamination with <1mm, friction coefficient 0.70.
Необработанный UUOO 091500Z 00000MPS CAVOK 26/15 Q1018 R12/010070 TEMPO -TSRA SCT020CB RMK QFE749

VFR

28°C / 18°C

[Больше]
Ветер variable 2kt
Видимость >10km
Погода -
Облачность Clouds and Visibility OK
Давление 1017
Изменить Temporary: Light Thunderstorm Rain . Scattered Clouds 2000ft. Cumulonimbus RMK QFE749 . Runway 12: Clear and dry, 1-10% contamination with <1mm, friction coefficient 0.70.
Необработанный UUOO 091430Z VRB01MPS CAVOK 28/18 Q1017 R12/010070 TEMPO -TSRA SCT020CB RMK QFE749

VFR

30°C / 14°C

[Больше]
Ветер 240º 4kt
Видимость >10km
Погода -
Облачность Clouds and Visibility OK
Давление 1017
Изменить No Significant change. Runway 12: Clear and dry, 1-10% contamination with <1mm, friction coefficient 0.70.
Необработанный UUOO 091400Z 24002MPS CAVOK 30/14 Q1017 R12/010070 NOSIG RMK QFE749

TAF для 51.82°С 39.23°В (UUOO)

From till


From till Wind 40º 6kt. Visibility 10km or more. Scattered Clouds 4000ft.

Необработанный: TAF UUOO 092300Z 1000/1009 04003MPS 9999 SCT040

Радарный и сверхкраткосрочный прогноз осадков для 51.82°С 39.23°В

Морось
Незначительные
Умеренные
Сильные
Очень Сильные
Град

Индикатор местности находится на 51.82°С 39.23°В. Анимация показывает радар осадков за последний час, а также прогноз погоды для 1h. Морось или небольшой снег могут быть невидимы для радара. Интенсивность осадков имеет цветовую кодировку - от светло-голубого до оранжевого.

Текущие спутниковые изображения и снимки дождя для 51.82°С 39.23°В

Указатель местности находится на 51.82°С 39.23°В. [Больше]

Спутниковое изображение в реальном времени сочетает в себе видимый свет в дневное время с инфракрасным излучением в ночное время. Ночью изображение получается не темным, так как инфракрасное излучение может обнаружить разницу температур. К сожалению, низкие облака и туман трудно отличить от температуры у поверхности земли и поэтому могут быть почти незаметны ночью. Спутниковые снимки Meteosat для Европы обновляются каждые 5 минут в режиме реального времени.Снимки GOES-16/GOES-17 (Северная и Южная Америка) и Химавари (Азия) обновляются каждые 10 минут.

Копирайт 2022 EUMETSAT / meteoblue. / Копирайт 2022 meteoblue

Обратно к последним данным